Marion, Oregon
Current Conditions -  °F | °C
As of 5:56 AM on Thursday 23 Oct 2014 (Local Time) from KSLE Reporting Station
Overcast Overcast  
Wind Chill: 57°   Ceiling: 1600
Heat Index: 57°   Visibility: 10mi
Dew Point: 54°   Wind: 10mph
Humidity: 89%   Direction: 180°S
Pressure: 29.77"   Gusts: NA
Location:  44.75°N, 122.94°W
Report Text: KSLE 231256Z AUTO 18009KT 10SM SCT009 BKN016 OVC030 14/12 A2977 RMK AO2 RAE56 SLP079 P0005 T01390122
Loading
Personal Weather Stations






























Interactive Weather Map
Tropical Storm Tracking
New forecast layout! Learn more

10-Day Weather Forecast

Advertisements
Track Severe Weather on mobile